Time;durP1;ratioP1;P1;durP2;ratioP2;P2;SDS_P1;SDS_P2;PMS_P1;PMS_P2;Temp;Humidity;BMP_temperature;BMP_pressure;BME280_temperature;BME280_humidity;BME280_pressure;Samples;Min_cycle;Max_cycle;Signal;HPM_P1;HPM_P2
2021/08/16 00:02:26;;;;;;;3.53;2.90;;;;;;;19.24;100.00;99993.16;5033067;28;20231;-75
2021/08/16 00:04:54;;;;;;;4.35;3.30;;;;;;;19.37;100.00;99998.31;5013612;28;20215;-76
2021/08/16 00:07:22;;;;;;;4.72;3.10;;;;;;;19.38;100.00;99991.66;5031253;28;20228;-75
2021/08/16 00:09:48;;;;;;;6.53;3.00;;;;;;;19.22;100.00;99979.72;5062227;28;20188;-76
2021/08/16 00:12:16;;;;;;;8.07;2.97;;;;;;;19.18;100.00;99970.56;5016859;28;20223;-76
2021/08/16 00:14:41;;;;;;;3.92;2.88;;;;;;;19.20;100.00;99968.25;5030398;28;20237;-77
2021/08/16 00:17:12;;;;;;;5.97;3.15;;;;;;;19.08;100.00;99968.28;5033249;28;20235;-75
2021/08/16 00:19:38;;;;;;;3.80;2.70;;;;;;;19.01;100.00;99969.97;5040284;28;20595;-76
2021/08/16 00:22:04;;;;;;;3.97;2.72;;;;;;;19.07;100.00;99972.16;5016304;28;20310;-76
2021/08/16 00:24:30;;;;;;;5.97;3.45;;;;;;;19.12;100.00;99962.84;5051199;28;20218;-76
2021/08/16 00:26:58;;;;;;;4.78;2.95;;;;;;;19.03;100.00;99965.75;5058935;28;20203;-75
2021/08/16 00:29:27;;;;;;;5.20;3.13;;;;;;;19.15;100.00;99968.47;5042821;28;20653;-74
2021/08/16 00:31:53;;;;;;;5.05;3.05;;;;;;;19.28;100.00;99967.31;5033150;28;20230;-75
2021/08/16 00:34:18;;;;;;;4.68;3.20;;;;;;;19.37;100.00;99948.72;5013700;28;20177;-75
2021/08/16 00:36:44;;;;;;;4.68;3.10;;;;;;;19.51;100.00;99949.16;5013249;28;20578;-74
2021/08/16 00:39:09;;;;;;;3.15;2.85;;;;;;;19.43;100.00;99936.31;5016432;28;20195;-75
2021/08/16 00:41:36;;;;;;;3.90;2.65;;;;;;;19.11;100.00;99934.53;5016533;28;20234;-75
2021/08/16 00:44:07;;;;;;;4.70;2.90;;;;;;;19.01;100.00;99935.00;5013793;28;20580;-74
2021/08/16 00:46:35;;;;;;;4.75;2.88;;;;;;;19.10;100.00;99943.13;5029853;28;20702;-75
2021/08/16 00:49:03;;;;;;;5.35;3.17;;;;;;;18.71;100.00;99956.72;5033231;28;20183;-75
2021/08/16 00:51:33;;;;;;;6.18;2.97;;;;;;;18.98;100.00;99951.41;5016377;28;20254;-75
2021/08/16 00:54:00;;;;;;;7.45;2.90;;;;;;;19.09;100.00;99958.84;5041501;28;20278;-75
2021/08/16 00:56:28;;;;;;;4.32;3.28;;;;;;;18.72;100.00;99991.38;5023968;28;20264;-73
2021/08/16 00:58:55;;;;;;;9.23;4.10;;;;;;;18.55;100.00;100003.38;5040873;28;20241;-72
2021/08/16 01:01:23;;;;;;;13.50;5.60;;;;;;;18.34;100.00;100001.00;5021578;28;20768;-74
2021/08/16 01:03:51;;;;;;;10.20;4.30;;;;;;;17.99;100.00;100020.88;5034043;28;20187;-73
2021/08/16 01:06:16;;;;;;;7.07;4.20;;;;;;;17.78;100.00;99959.59;5017225;28;20223;-74
2021/08/16 01:08:47;;;;;;;8.80;4.40;;;;;;;17.64;100.00;99937.13;5033311;28;20186;-75
2021/08/16 01:11:16;;;;;;;10.25;4.68;;;;;;;17.52;100.00;99937.03;5033457;28;20223;-74
2021/08/16 01:13:42;;;;;;;9.52;5.20;;;;;;;17.55;100.00;99938.31;5018130;28;20195;-72
2021/08/16 01:16:10;;;;;;;9.70;4.40;;;;;;;17.44;100.00;99937.91;5032472;28;20223;-73
2021/08/16 01:18:36;;;;;;;8.88;5.40;;;;;;;17.54;100.00;99925.72;5016240;28;20184;-74
2021/08/16 01:21:08;;;;;;;11.00;5.40;;;;;;;17.65;100.00;99916.72;5050283;28;20268;-74
2021/08/16 01:23:34;;;;;;;11.25;5.63;;;;;;;17.72;100.00;99911.50;5029259;28;20194;-73
2021/08/16 01:26:00;;;;;;;9.75;5.22;;;;;;;17.88;100.00;99907.00;5031532;28;20207;-73
2021/08/16 01:28:25;;;;;;;11.95;5.60;;;;;;;17.85;100.00;99915.91;5036681;28;20183;-75
2021/08/16 01:30:54;;;;;;;9.55;5.75;;;;;;;17.73;100.00;99957.09;5069365;28;20289;-73
2021/08/16 01:33:22;;;;;;;11.02;5.90;;;;;;;17.71;100.00;99992.34;5036967;28;20203;-74
2021/08/16 01:35:48;;;;;;;25.13;7.53;;;;;;;17.73;100.00;99959.84;5037703;28;20699;-74
2021/08/16 01:38:13;;;;;;;12.63;6.38;;;;;;;17.70;100.00;99982.47;5020782;28;20269;-74
2021/08/16 01:40:41;;;;;;;10.38;5.45;;;;;;;17.58;100.00;99959.59;5020190;28;20310;-74
2021/08/16 01:43:09;;;;;;;11.20;6.00;;;;;;;17.74;100.00;99947.69;5069965;28;20225;-74
2021/08/16 01:45:35;;;;;;;9.75;6.18;;;;;;;17.77;100.00;99941.53;5032516;28;20219;-71
2021/08/16 01:48:00;;;;;;;13.63;6.30;;;;;;;17.77;100.00;99933.28;5016624;28;20181;-74
2021/08/16 01:50:30;;;;;;;11.40;6.22;;;;;;;17.68;100.00;99948.25;5019592;28;20636;-74
2021/08/16 01:52:56;;;;;;;10.85;6.38;;;;;;;17.82;100.00;99938.59;5041048;28;20665;-74
2021/08/16 01:55:21;;;;;;;13.73;6.55;;;;;;;17.84;100.00;99947.28;5036057;28;20226;-75
2021/08/16 01:57:47;;;;;;;7.63;6.07;;;;;;;17.71;100.00;99942.06;5035940;28;20223;-75
2021/08/16 02:00:13;;;;;;;11.80;6.18;;;;;;;17.64;100.00;99937.13;5015701;28;20603;-74
2021/08/16 02:02:39;;;;;;;10.02;6.05;;;;;;;17.72;100.00;99928.00;5032929;28;20597;-75
2021/08/16 02:05:07;;;;;;;10.30;5.75;;;;;;;17.74;100.00;99932.00;5035947;28;20187;-74
2021/08/16 02:07:33;;;;;;;10.35;5.88;;;;;;;17.47;100.00;99936.44;5021728;28;20163;-75
2021/08/16 02:10:01;;;;;;;9.55;5.88;;;;;;;17.50;100.00;99942.06;5021704;28;20198;-74
2021/08/16 02:12:27;;;;;;;8.32;5.43;;;;;;;17.41;100.00;99949.56;5035968;28;20234;-74
2021/08/16 02:14:52;;;;;;;12.88;5.72;;;;;;;17.40;100.00;99939.72;5020161;28;20195;-74
2021/08/16 02:17:18;;;;;;;12.77;6.22;;;;;;;17.59;100.00;99934.56;5019683;28;20696;-75
2021/08/16 02:19:46;;;;;;;10.45;6.80;;;;;;;17.57;100.00;99936.84;5054244;28;20188;-75
2021/08/16 02:22:12;;;;;;;11.85;6.30;;;;;;;17.66;100.00;99939.53;5035479;28;20736;-76
2021/08/16 02:24:37;;;;;;;9.48;6.05;;;;;;;17.82;100.00;99927.59;5027722;28;20258;-75
2021/08/16 02:27:03;;;;;;;12.82;6.40;;;;;;;17.51;100.00;99921.72;5019453;28;20586;-75
2021/08/16 02:29:28;;;;;;;10.52;5.95;;;;;;;17.52;100.00;99928.78;5032450;28;20188;-75
2021/08/16 02:31:54;;;;;;;9.40;6.05;;;;;;;17.45;100.00;99927.72;5018602;28;20223;-75
2021/08/16 02:34:21;;;;;;;11.43;6.38;;;;;;;17.52;100.00;99934.28;5019526;28;20698;-75
2021/08/16 02:36:47;;;;;;;10.48;5.68;;;;;;;17.49;100.00;99924.00;5015429;28;20216;-74
2021/08/16 02:39:15;;;;;;;10.15;5.95;;;;;;;17.37;100.00;99928.59;5015888;28;20598;-74
2021/08/16 02:41:41;;;;;;;10.27;5.68;;;;;;;17.39;100.00;99921.63;5036025;28;20223;-75
2021/08/16 02:44:08;;;;;;;13.30;6.47;;;;;;;17.41;100.00;99919.34;5035472;28;20183;-76
2021/08/16 02:46:36;;;;;;;13.95;6.60;;;;;;;17.35;100.00;99926.19;5035658;28;20215;-73
2021/08/16 02:49:04;;;;;;;12.35;6.95;;;;;;;17.29;100.00;99923.16;5036324;28;20191;-75
2021/08/16 02:51:32;;;;;;;12.60;6.63;;;;;;;17.29;100.00;99923.97;5018880;28;20223;-75
2021/08/16 02:53:57;;;;;;;10.98;6.13;;;;;;;17.25;100.00;99924.97;5028238;28;20245;-75
2021/08/16 02:56:26;;;;;;;9.63;6.47;;;;;;;17.32;100.00;99917.00;5053075;28;20215;-75
2021/08/16 02:58:51;;;;;;;10.70;6.40;;;;;;;17.30;100.00;99924.78;5019481;28;20188;-76
2021/08/16 03:01:17;;;;;;;11.63;6.57;;;;;;;17.37;100.00;99921.16;5032053;28;20216;-76
2021/08/16 03:03:43;;;;;;;12.85;6.47;;;;;;;17.47;100.00;99907.03;5015938;28;20185;-76
2021/08/16 03:06:10;;;;;;;12.15;7.25;;;;;;;17.52;100.00;99906.81;5018070;28;20212;-76
2021/08/16 03:08:39;;;;;;;11.73;7.40;;;;;;;17.53;100.00;99897.47;5018979;28;20176;-73
2021/08/16 03:11:05;;;;;;;12.63;6.90;;;;;;;17.37;100.00;99898.41;5035999;28;20254;-75
2021/08/16 03:13:30;;;;;;;11.65;7.00;;;;;;;17.33;100.00;99891.97;5069013;28;20211;-75
2021/08/16 03:15:56;;;;;;;10.70;6.63;;;;;;;17.29;100.00;99890.22;5018541;28;20274;-75
2021/08/16 03:18:24;;;;;;;15.27;7.15;;;;;;;17.42;100.00;99893.50;5035046;28;20211;-75
2021/08/16 03:20:51;;;;;;;10.65;6.55;;;;;;;17.34;100.00;99894.38;5035256;28;20223;-74
2021/08/16 03:23:16;;;;;;;10.88;7.35;;;;;;;17.36;100.00;99886.63;5019316;28;20654;-75
2021/08/16 03:25:44;;;;;;;11.55;6.45;;;;;;;17.29;100.00;99898.44;5041895;28;20215;-74
2021/08/16 03:28:10;;;;;;;15.80;7.20;;;;;;;17.37;100.00;99893.69;5014852;28;20238;-75
2021/08/16 03:30:40;;;;;;;12.93;7.57;;;;;;;17.33;100.00;99898.25;4999098;28;20289;-76
2021/08/16 03:33:06;;;;;;;10.75;6.90;;;;;;;17.33;100.00;99887.28;5030862;28;20216;-73
2021/08/16 03:35:31;;;;;;;14.52;6.93;;;;;;;17.36;100.00;99891.28;5018106;28;20215;-75
2021/08/16 03:37:59;;;;;;;13.90;7.10;;;;;;;17.42;100.00;99896.25;5017902;28;20207;-76
2021/08/16 03:40:26;;;;;;;15.32;6.85;;;;;;;17.38;100.00;99889.84;5035390;28;20219;-75
2021/08/16 03:42:55;;;;;;;12.88;7.05;;;;;;;17.35;100.00;99890.50;5068408;28;20250;-74
2021/08/16 03:45:20;;;;;;;14.05;7.10;;;;;;;17.29;100.00;99901.19;5018205;28;20206;-74
2021/08/16 03:47:46;;;;;;;12.45;7.70;;;;;;;17.22;100.00;99903.69;5034513;28;20211;-75
2021/08/16 03:50:14;;;;;;;11.40;7.05;;;;;;;17.20;100.00;99898.53;5002015;28;20759;-74
2021/08/16 03:52:40;;;;;;;13.35;7.30;;;;;;;17.30;100.00;99897.31;5020043;28;20699;-75
2021/08/16 03:55:06;;;;;;;13.32;7.50;;;;;;;17.20;100.00;99886.75;5049056;28;20168;-74
2021/08/16 03:57:32;;;;;;;13.93;7.43;;;;;;;17.37;100.00;99890.16;5000044;28;20306;-74
2021/08/16 04:00:04;;;;;;;13.15;7.15;;;;;;;17.44;100.00;99884.94;5052402;28;20175;-75
2021/08/16 04:02:41;;;;;;;12.35;7.10;;;;;;;17.31;100.00;99882.44;5043551;28;20215;-74
2021/08/16 04:05:07;;;;;;;11.35;6.90;;;;;;;17.33;100.00;99886.47;5015411;28;20176;-74
2021/08/16 04:07:33;;;;;;;13.60;6.82;;;;;;;17.39;100.00;99885.13;5014862;28;20213;-75
2021/08/16 04:09:58;;;;;;;12.73;6.50;;;;;;;17.45;100.00;99884.63;5015754;28;20188;-75
2021/08/16 04:12:24;;;;;;;13.18;6.88;;;;;;;17.41;100.00;99869.91;5011796;28;20209;-75
2021/08/16 04:14:52;;;;;;;13.07;6.53;;;;;;;17.33;100.00;99863.72;5013301;28;20894;-73
2021/08/16 04:17:18;;;;;;;9.45;6.68;;;;;;;17.24;100.00;99862.97;4982639;28;20231;-74
2021/08/16 04:19:44;;;;;;;11.55;6.75;;;;;;;17.03;100.00;99875.84;5016153;28;20190;-75
2021/08/16 04:22:09;;;;;;;9.00;6.43;;;;;;;17.00;100.00;99876.53;4982826;28;20306;-74
2021/08/16 04:24:35;;;;;;;13.93;7.63;;;;;;;17.02;100.00;99885.22;5030567;28;20188;-72
2021/08/16 04:27:03;;;;;;;14.50;7.90;;;;;;;17.08;100.00;99889.38;5028343;28;20231;-73
2021/08/16 04:29:28;;;;;;;11.68;7.68;;;;;;;17.07;100.00;99882.28;5015055;28;20661;-73
2021/08/16 04:31:56;;;;;;;10.52;7.78;;;;;;;17.08;100.00;99883.88;5014437;28;20223;-74
2021/08/16 04:34:22;;;;;;;14.55;8.73;;;;;;;17.26;100.00;99885.41;4995636;28;20250;-75
2021/08/16 04:36:47;;;;;;;16.95;9.45;;;;;;;17.16;100.00;99883.88;4993988;28;20224;-73
2021/08/16 04:39:15;;;;;;;11.90;8.82;;;;;;;17.06;100.00;99875.19;5011924;28;20180;-74
2021/08/16 04:41:41;;;;;;;17.85;10.20;;;;;;;17.17;100.00;99871.72;4997493;28;20654;-73
2021/08/16 04:44:06;;;;;;;15.38;10.13;;;;;;;17.06;100.00;99875.97;5030214;28;20191;-73
2021/08/16 04:46:32;;;;;;;15.90;9.77;;;;;;;17.07;100.00;99860.34;5014395;28;20231;-74
2021/08/16 04:48:57;;;;;;;15.02;9.27;;;;;;;17.12;100.00;99857.38;5003069;28;20559;-74
2021/08/16 04:51:23;;;;;;;16.58;9.90;;;;;;;17.11;100.00;99862.06;4977369;28;20221;-73
2021/08/16 04:53:48;;;;;;;17.20;10.23;;;;;;;17.21;100.00;99860.88;5024931;28;20596;-73
2021/08/16 04:56:14;;;;;;;13.20;9.75;;;;;;;17.26;100.00;99863.44;5026510;28;20211;-73
2021/08/16 04:58:40;;;;;;;20.90;10.93;;;;;;;17.16;100.00;99864.66;5008563;28;20617;-73
2021/08/16 05:01:05;;;;;;;19.90;10.90;;;;;;;17.08;100.00;99867.41;4998980;28;20217;-72
2021/08/16 05:03:31;;;;;;;15.15;9.75;;;;;;;16.95;100.00;99863.00;5004982;28;20354;-76
2021/08/16 05:06:04;;;;;;;17.27;10.20;;;;;;;17.11;100.00;99861.28;5017557;28;20234;-74
2021/08/16 05:08:30;;;;;;;16.50;10.80;;;;;;;17.18;100.00;99864.28;4999076;28;20197;-73
2021/08/16 05:10:58;;;;;;;16.17;10.48;;;;;;;17.23;100.00;99864.09;4997739;28;20212;-78
2021/08/16 05:13:25;;;;;;;18.33;10.45;;;;;;;17.18;100.00;99862.38;5001554;28;20204;-75
2021/08/16 05:15:51;;;;;;;18.23;11.23;;;;;;;17.18;100.00;99864.28;5002534;28;20223;-73
2021/08/16 05:18:16;;;;;;;19.02;10.68;;;;;;;17.27;100.00;99862.28;5001131;28;20207;-74
2021/08/16 05:20:42;;;;;;;17.27;10.50;;;;;;;17.25;100.00;99857.16;5001236;28;20224;-74
2021/08/16 05:23:08;;;;;;;18.45;10.68;;;;;;;17.35;100.00;99856.75;5005673;28;20589;-74
2021/08/16 05:25:34;;;;;;;13.93;9.30;;;;;;;17.21;100.00;99855.41;5008109;28;20213;-74
2021/08/16 05:27:59;;;;;;;16.83;10.13;;;;;;;17.26;100.00;99857.97;5036816;28;20656;-74
2021/08/16 05:30:25;;;;;;;16.88;10.32;;;;;;;17.34;100.00;99852.38;5016730;28;20548;-74
2021/08/16 05:32:53;;;;;;;17.10;9.75;;;;;;;17.34;100.00;99855.13;5050594;28;20215;-74
2021/08/16 05:35:21;;;;;;;19.55;9.90;;;;;;;17.33;100.00;99852.75;5033927;28;20528;-73
2021/08/16 05:37:46;;;;;;;18.00;9.77;;;;;;;17.50;100.00;99854.19;5001613;28;20212;-75
2021/08/16 05:40:15;;;;;;;16.63;9.55;;;;;;;17.39;100.00;99863.97;4996824;28;20223;-75
2021/08/16 05:42:45;;;;;;;15.48;8.70;;;;;;;17.43;100.00;99867.63;4997895;28;20201;-74
2021/08/16 05:45:11;;;;;;;16.70;8.63;;;;;;;17.37;100.00;99866.25;5012693;28;20185;-74
2021/08/16 05:47:38;;;;;;;17.35;8.70;;;;;;;17.40;100.00;99865.59;5017042;28;20693;-74
2021/08/16 05:50:07;;;;;;;17.15;8.45;;;;;;;17.39;100.00;99869.47;4997148;28;20185;-74
2021/08/16 05:52:36;;;;;;;15.85;8.90;;;;;;;17.43;100.00;99866.84;5014696;28;20212;-73
2021/08/16 05:55:02;;;;;;;17.70;8.80;;;;;;;17.45;100.00;99868.13;5029512;28;20184;-75
2021/08/16 05:57:28;;;;;;;16.77;7.88;;;;;;;17.52;100.00;99873.88;5019415;28;20224;-76
2021/08/16 05:59:56;;;;;;;15.18;8.50;;;;;;;17.60;100.00;99870.25;5049640;28;20192;-74
2021/08/16 06:02:24;;;;;;;17.60;8.10;;;;;;;17.72;100.00;99862.06;5000824;28;20224;-75
2021/08/16 06:04:52;;;;;;;16.08;8.15;;;;;;;17.84;100.00;99864.84;5014139;28;20235;-73
2021/08/16 06:07:20;;;;;;;17.35;8.55;;;;;;;17.66;100.00;99866.16;5032473;28;20216;-74
2021/08/16 06:09:48;;;;;;;15.50;8.20;;;;;;;17.70;100.00;99858.84;5032874;28;20177;-74
2021/08/16 06:12:14;;;;;;;15.57;7.78;;;;;;;17.82;100.00;99853.41;5049308;28;20293;-74
2021/08/16 06:14:39;;;;;;;21.27;7.95;;;;;;;17.74;100.00;99863.31;5000125;28;20250;-73
2021/08/16 06:17:05;;;;;;;13.70;7.70;;;;;;;17.82;100.00;99856.94;5016193;28;20224;-73
2021/08/16 06:19:36;;;;;;;18.48;8.02;;;;;;;18.05;100.00;99860.09;5048754;28;20188;-74
2021/08/16 06:22:02;;;;;;;13.77;7.13;;;;;;;17.77;100.00;99850.88;5032947;28;20247;-75
2021/08/16 06:24:33;;;;;;;15.20;7.43;;;;;;;17.63;100.00;99858.56;5029667;28;20175;-76
2021/08/16 06:26:58;;;;;;;14.10;8.07;;;;;;;17.83;100.00;99852.25;5023399;28;20216;-74
2021/08/16 06:29:24;;;;;;;15.38;7.50;;;;;;;17.75;100.00;99861.38;4983727;28;20191;-73
2021/08/16 06:31:49;;;;;;;15.50;7.60;;;;;;;17.89;100.00;99856.38;5015662;28;20228;-73
2021/08/16 06:34:15;;;;;;;15.98;7.85;;;;;;;18.12;100.00;99850.97;5016304;28;20235;-74
2021/08/16 06:36:51;;;;;;;14.07;6.72;;;;;;;18.00;100.00;99855.59;4999400;28;20227;-78
2021/08/16 06:39:21;;;;;;;15.05;7.47;;;;;;;17.97;100.00;99861.00;5002397;28;20187;-75
2021/08/16 06:41:50;;;;;;;15.13;6.60;;;;;;;17.94;100.00;99858.91;5033744;28;20244;-76
2021/08/16 06:44:19;;;;;;;12.77;6.93;;;;;;;17.95;100.00;99855.03;5049747;28;20693;-75
2021/08/16 06:46:47;;;;;;;15.68;6.32;;;;;;;18.00;100.00;99857.56;5016749;28;20234;-76
2021/08/16 06:49:15;;;;;;;9.70;6.32;;;;;;;18.14;100.00;99854.19;5031990;28;20204;-75
2021/08/16 06:51:41;;;;;;;14.77;7.00;;;;;;;18.05;100.00;99857.34;5034052;28;20231;-74
2021/08/16 06:54:07;;;;;;;13.45;6.65;;;;;;;18.05;100.00;99857.34;5046766;28;20187;-75
2021/08/16 06:56:35;;;;;;;15.02;7.43;;;;;;;18.03;100.00;99857.69;5010870;28;20314;-74
2021/08/16 06:59:03;;;;;;;14.18;7.53;;;;;;;18.21;100.00;99857.19;5019950;28;20642;-75
2021/08/16 07:01:31;;;;;;;12.07;6.70;;;;;;;18.04;100.00;99858.47;5017016;28;20312;-75
2021/08/16 07:03:57;;;;;;;15.07;6.75;;;;;;;18.06;100.00;99856.19;4997134;28;20592;-74
2021/08/16 07:06:23;;;;;;;17.92;7.47;;;;;;;18.19;100.00;99856.72;5010168;28;20277;-74
2021/08/16 07:08:51;;;;;;;13.60;6.50;;;;;;;18.14;100.00;99862.44;4999431;28;20180;-74
2021/08/16 07:11:19;;;;;;;15.02;7.05;;;;;;;18.19;100.00;99862.22;5032890;28;20216;-74
2021/08/16 07:13:44;;;;;;;13.32;7.18;;;;;;;18.12;100.00;99857.63;5000347;28;20196;-75
2021/08/16 07:16:10;;;;;;;13.10;6.85;;;;;;;18.23;100.00;99868.63;5015068;28;20310;-75
2021/08/16 07:18:36;;;;;;;12.27;7.03;;;;;;;18.17;100.00;99870.00;5032685;28;20220;-76
2021/08/16 07:21:02;;;;;;;14.57;7.30;;;;;;;18.27;100.00;99868.75;4988270;28;20223;-74
2021/08/16 07:23:30;;;;;;;13.30;6.75;;;;;;;18.33;100.00;99872.88;5023715;28;20291;-75
2021/08/16 07:25:58;;;;;;;14.32;6.65;;;;;;;18.33;100.00;99868.22;5026324;28;20211;-75
2021/08/16 07:28:28;;;;;;;12.10;6.68;;;;;;;18.50;100.00;99862.50;5035481;28;20176;-74
2021/08/16 07:30:56;;;;;;;17.08;7.45;;;;;;;18.57;100.00;99868.19;5008412;28;20221;-76
2021/08/16 07:33:27;;;;;;;15.63;7.40;;;;;;;18.40;100.00;99870.38;4981443;28;20197;-74
2021/08/16 07:35:55;;;;;;;16.00;6.97;;;;;;;18.54;100.00;99868.91;5001818;28;20224;-74
2021/08/16 07:38:20;;;;;;;12.63;6.65;;;;;;;18.59;100.00;99871.44;5015336;28;20697;-75
2021/08/16 07:40:49;;;;;;;14.70;6.90;;;;;;;18.66;100.00;99866.16;4996753;28;20241;-74
2021/08/16 07:43:18;;;;;;;14.52;6.70;;;;;;;18.82;100.00;99862.34;5028602;28;20243;-74
2021/08/16 07:45:44;;;;;;;11.45;6.63;;;;;;;18.60;100.00;99867.53;4983020;28;20739;-73
2021/08/16 07:48:12;;;;;;;12.40;6.57;;;;;;;18.71;100.00;99863.19;5015421;28;20674;-75
2021/08/16 07:50:38;;;;;;;13.20;6.95;;;;;;;18.91;100.00;99865.78;4999518;28;20224;-75
2021/08/16 07:53:03;;;;;;;12.38;6.53;;;;;;;18.90;100.00;99872.47;5004719;28;20204;-74
2021/08/16 07:55:31;;;;;;;18.65;7.00;;;;;;;19.00;100.00;99867.31;5044012;28;20290;-75
2021/08/16 07:57:57;;;;;;;17.52;7.00;;;;;;;19.00;100.00;99878.31;4979805;28;20248;-74
2021/08/16 08:00:25;;;;;;;16.95;7.18;;;;;;;18.89;100.00;99871.63;5011746;28;20231;-78
2021/08/16 08:02:51;;;;;;;14.73;6.88;;;;;;;19.12;100.00;99866.47;5011028;28;20209;-74
2021/08/16 08:05:22;;;;;;;14.45;6.97;;;;;;;18.92;100.00;99868.22;5012084;28;20193;-75
2021/08/16 08:07:50;;;;;;;15.40;6.80;;;;;;;18.99;100.00;99870.41;5017312;28;20185;-76
2021/08/16 08:10:17;;;;;;;14.13;7.20;;;;;;;18.96;100.00;99873.81;5036675;28;20182;-75
2021/08/16 08:12:43;;;;;;;14.00;6.15;;;;;;;19.06;100.00;99865.91;5030238;28;20209;-74
2021/08/16 08:15:11;;;;;;;12.85;6.70;;;;;;;19.09;100.00;99876.25;5032024;28;20177;-75
2021/08/16 08:17:39;;;;;;;13.00;6.63;;;;;;;19.10;100.00;99866.84;5029588;28;20291;-75
2021/08/16 08:20:08;;;;;;;16.20;8.02;;;;;;;19.25;100.00;99868.88;5002387;28;20642;-76
2021/08/16 08:22:36;;;;;;;14.13;7.45;;;;;;;19.43;100.00;99864.69;4996272;28;20239;-73
2021/08/16 08:25:05;;;;;;;12.18;6.53;;;;;;;19.45;100.00;99857.69;5032191;28;20181;-74
2021/08/16 08:27:32;;;;;;;13.05;6.90;;;;;;;19.68;100.00;99867.78;5022565;28;20244;-76
2021/08/16 08:30:00;;;;;;;16.17;7.05;;;;;;;19.80;100.00;99865.00;5014015;28;20180;-77
2021/08/16 08:32:28;;;;;;;15.85;7.32;;;;;;;19.65;100.00;99866.91;5029146;28;20216;-75
2021/08/16 08:34:54;;;;;;;15.07;6.90;;;;;;;19.66;100.00;99870.09;5046152;28;20783;-75
2021/08/16 08:37:20;;;;;;;13.57;7.22;;;;;;;19.73;100.00;99870.31;5048565;28;20728;-75
2021/08/16 08:39:46;;;;;;;15.68;7.45;;;;;;;19.59;100.00;99873.81;5033907;28;20564;-73
2021/08/16 08:42:12;;;;;;;12.93;6.15;;;;;;;19.58;100.00;99873.03;5031021;28;20224;-75
2021/08/16 08:44:38;;;;;;;12.55;6.45;;;;;;;19.63;100.00;99875.50;5048476;28;20600;-74
2021/08/16 08:47:04;;;;;;;14.32;7.20;;;;;;;19.62;100.00;99875.88;5034552;28;20294;-74
2021/08/16 08:49:32;;;;;;;14.30;6.60;;;;;;;19.53;100.00;99875.22;5018549;28;20184;-76
2021/08/16 08:52:00;;;;;;;14.50;6.57;;;;;;;19.62;100.00;99876.69;5031720;28;20219;-76
2021/08/16 08:54:28;;;;;;;14.55;6.25;;;;;;;19.59;100.00;99873.81;5024204;28;20184;-75
2021/08/16 08:56:56;;;;;;;12.05;6.43;;;;;;;19.74;100.00;99871.94;5043563;28;20636;-73
2021/08/16 08:59:21;;;;;;;15.07;6.53;;;;;;;19.74;100.00;99877.44;5052711;28;20210;-79
2021/08/16 09:02:07;;;;;;;12.75;6.25;;;;;;;20.13;100.00;99868.31;5018297;28;20237;-75
2021/08/16 09:04:35;;;;;;;13.18;5.80;;;;;;;20.05;100.00;99882.25;5018866;28;20179;-72
2021/08/16 09:07:01;;;;;;;12.27;5.40;;;;;;;20.03;100.00;99876.28;5052658;28;20226;-74
2021/08/16 09:09:26;;;;;;;11.95;5.78;;;;;;;20.13;100.00;99869.09;5018604;28;20179;-76
2021/08/16 09:11:53;;;;;;;13.65;5.85;;;;;;;19.97;100.00;99873.00;5018606;28;20575;-73
2021/08/16 09:14:19;;;;;;;10.63;5.82;;;;;;;19.66;100.00;99871.28;5035388;28;20195;-74
2021/08/16 09:16:46;;;;;;;11.00;5.47;;;;;;;19.54;100.00;99871.28;5034429;28;20684;-74
2021/08/16 09:19:18;;;;;;;12.02;6.35;;;;;;;19.36;100.00;99873.53;5031205;28;20191;-73
2021/08/16 09:21:49;;;;;;;10.85;5.95;;;;;;;19.23;100.00;99876.69;5031481;28;20621;-74
2021/08/16 09:24:22;;;;;;;15.63;6.60;;;;;;;19.09;100.00;99875.44;5043573;28;20183;-73
2021/08/16 09:26:52;;;;;;;11.77;6.32;;;;;;;18.89;100.00;99884.59;5034051;28;20230;-76
2021/08/16 09:29:22;;;;;;;12.85;6.90;;;;;;;18.83;100.00;99894.25;5015061;28;20716;-74
2021/08/16 09:31:56;;;;;;;14.30;7.45;;;;;;;18.76;100.00;99890.47;5015092;28;20228;-76
2021/08/16 09:34:29;;;;;;;11.52;7.25;;;;;;;18.82;100.00;99900.09;5036794;28;20262;-74
2021/08/16 09:36:56;;;;;;;12.07;7.95;;;;;;;18.79;100.00;99889.75;5035004;28;20231;-76
2021/08/16 09:39:24;;;;;;;12.98;7.60;;;;;;;18.91;100.00;99885.06;5017942;28;21025;-74
2021/08/16 09:41:57;;;;;;;10.63;7.20;;;;;;;18.99;100.00;99892.41;5018441;28;20281;-74
2021/08/16 09:44:23;;;;;;;12.50;7.75;;;;;;;19.08;100.00;99893.94;5038592;28;20249;-75
2021/08/16 09:46:57;;;;;;;10.57;7.35;;;;;;;19.12;100.00;99891.25;5037902;28;20219;-75
2021/08/16 09:49:23;;;;;;;13.15;7.57;;;;;;;19.15;100.00;99885.88;5034435;28;20721;-74
2021/08/16 09:51:59;;;;;;;15.77;7.70;;;;;;;19.13;100.00;99888.16;5017829;28;20216;-73
2021/08/16 09:54:27;;;;;;;14.88;7.88;;;;;;;19.01;100.00;99884.63;5047322;28;20183;-75
2021/08/16 09:56:53;;;;;;;15.35;8.32;;;;;;;18.83;100.00;99893.44;5041047;28;20615;-73
2021/08/16 09:59:19;;;;;;;14.75;8.57;;;;;;;18.67;100.00;99878.78;5037907;28;20191;-73
2021/08/16 10:01:47;;;;;;;16.92;8.63;;;;;;;18.72;100.00;99897.81;5037334;28;20231;-74
2021/08/16 10:04:12;;;;;;;16.27;9.18;;;;;;;18.50;100.00;99895.50;5018202;28;20196;-74
2021/08/16 10:06:45;;;;;;;12.98;9.02;;;;;;;18.38;100.00;99892.72;5017668;28;20228;-76
2021/08/16 10:09:10;;;;;;;11.57;9.02;;;;;;;18.26;100.00;99895.47;5022116;28;20188;-75
2021/08/16 10:11:36;;;;;;;14.95;8.85;;;;;;;18.24;100.00;99892.25;5020635;28;20597;-74
2021/08/16 10:14:04;;;;;;;14.13;8.65;;;;;;;18.64;100.00;99893.19;5024337;28;20184;-73
2021/08/16 10:16:36;;;;;;;13.80;8.52;;;;;;;18.53;100.00;99897.56;5037061;28;20681;-73
2021/08/16 10:19:04;;;;;;;14.32;8.98;;;;;;;18.37;100.00;99893.88;5032272;28;20183;-76
2021/08/16 10:21:30;;;;;;;9.48;7.18;;;;;;;18.24;100.00;99886.75;5037147;28;20223;-74
2021/08/16 10:23:58;;;;;;;9.13;6.07;;;;;;;18.30;100.00;99887.34;5022232;28;20188;-72
2021/08/16 10:26:33;;;;;;;8.30;5.47;;;;;;;18.14;100.00;99886.38;5071520;28;20720;-73
2021/08/16 10:29:08;;;;;;;8.65;5.30;;;;;;;17.97;100.00;99886.53;5055879;28;20183;-74
2021/08/16 10:31:37;;;;;;;7.43;5.25;;;;;;;18.07;100.00;99893.53;5037603;28;20615;-75
2021/08/16 10:34:03;;;;;;;7.68;5.85;;;;;;;17.98;100.00;99887.31;5034357;28;20701;-73
2021/08/16 10:36:28;;;;;;;7.63;6.07;;;;;;;17.73;100.00;99891.16;5017858;28;20236;-73
2021/08/16 10:39:00;;;;;;;7.28;6.07;;;;;;;17.65;100.00;99903.00;5041727;28;20214;-73
2021/08/16 10:41:35;;;;;;;8.55;7.05;;;;;;;17.76;100.00;99906.94;5037597;28;20231;-73
2021/08/16 10:44:10;;;;;;;9.85;6.97;;;;;;;17.68;100.00;99905.09;5055902;28;20319;-71
2021/08/16 10:46:41;;;;;;;8.48;7.60;;;;;;;17.81;100.00;99909.50;5037090;28;20223;-72
2021/08/16 10:49:13;;;;;;;8.73;7.40;;;;;;;17.67;100.00;99913.66;5037117;28;20195;-72
2021/08/16 10:51:45;;;;;;;9.80;7.85;;;;;;;17.83;100.00;99910.75;5038298;28;20223;-72
2021/08/16 10:54:26;;;;;;;11.50;7.65;;;;;;;17.66;100.00;99918.34;5024509;28;20180;-74
2021/08/16 10:56:52;;;;;;;9.48;6.95;;;;;;;17.54;100.00;99926.50;5028181;28;20219;-76
2021/08/16 10:59:27;;;;;;;6.00;4.78;;;;;;;17.34;100.00;99935.56;5051388;28;20168;-74
2021/08/16 11:01:56;;;;;;;4.55;3.40;;;;;;;17.14;100.00;99940.19;5017492;28;20231;-74
2021/08/16 11:04:34;;;;;;;3.55;2.88;;;;;;;17.20;100.00;99936.16;5034911;28;20172;-75
2021/08/16 11:07:02;;;;;;;2.70;2.15;;;;;;;16.97;100.00;99943.03;5019521;28;20219;-75
2021/08/16 11:09:31;;;;;;;2.40;2.03;;;;;;;16.80;100.00;99937.63;5015221;28;20231;-74
2021/08/16 11:12:04;;;;;;;2.20;1.55;;;;;;;16.56;100.00;99938.56;5032923;28;20228;-72
2021/08/16 11:14:33;;;;;;;2.00;1.67;;;;;;;16.56;100.00;99931.94;5020479;28;20264;-75
2021/08/16 11:16:59;;;;;;;2.65;2.30;;;;;;;16.63;100.00;99937.72;5035691;28;20216;-75
2021/08/16 11:19:37;;;;;;;8.00;2.00;;;;;;;16.62;100.00;99944.31;5035712;28;20684;-76
2021/08/16 11:22:03;;;;;;;2.50;1.65;;;;;;;16.67;100.00;99944.16;5019875;28;20273;-76